Time;durP1;ratioP1;P1;durP2;ratioP2;P2;SDS_P1;SDS_P2;PMS_P1;PMS_P2;Temp;Humidity;BMP_temperature;BMP_pressure;BME280_temperature;BME280_humidity;BME280_pressure;Samples;Min_cycle;Max_cycle;Signal;HPM_P1;HPM_P2
2022/07/06 00:01:29;;;;;;;3.08;1.15;;;;;;;14.11;60.84;102454.81;5054208;28;20032;-75
2022/07/06 00:03:55;;;;;;;2.90;1.35;;;;;;;14.07;60.92;102454.00;5062351;28;20320;-75
2022/07/06 00:06:20;;;;;;;4.38;1.60;;;;;;;14.05;61.38;102458.38;5055228;28;20032;-75
2022/07/06 00:08:45;;;;;;;4.50;1.80;;;;;;;13.99;61.47;102455.88;5056082;28;20067;-74
2022/07/06 00:11:11;;;;;;;3.50;1.50;;;;;;;13.93;61.09;102456.78;5057449;28;20041;-75
2022/07/06 00:13:36;;;;;;;3.83;1.70;;;;;;;13.88;62.02;102450.78;5064929;28;20104;-75
2022/07/06 00:16:02;;;;;;;4.10;1.77;;;;;;;13.81;61.96;102457.84;5055832;28;20107;-76
2022/07/06 00:18:28;;;;;;;5.05;2.00;;;;;;;13.77;61.61;102461.38;5058673;28;20455;-75
2022/07/06 00:20:53;;;;;;;2.70;1.95;;;;;;;13.74;61.79;102471.88;5055453;28;20447;-75
2022/07/06 00:23:18;;;;;;;4.35;2.13;;;;;;;13.69;61.76;102467.59;5059528;28;20086;-75
2022/07/06 00:25:44;;;;;;;3.30;2.22;;;;;;;13.67;62.14;102480.69;5061299;28;20040;-75
2022/07/06 00:28:09;;;;;;;6.00;2.58;;;;;;;13.66;61.98;102476.38;5056140;28;20024;-75
2022/07/06 00:30:34;;;;;;;3.70;1.92;;;;;;;13.63;62.31;102473.78;5053497;28;20510;-75
2022/07/06 00:33:00;;;;;;;5.38;2.10;;;;;;;13.63;62.42;102473.78;5048597;28;20078;-75
2022/07/06 00:35:25;;;;;;;3.47;1.98;;;;;;;13.60;62.60;102473.81;5058332;28;20444;-75
2022/07/06 00:37:51;;;;;;;5.90;2.03;;;;;;;13.58;62.78;102467.72;5059845;28;20039;-75
2022/07/06 00:40:17;;;;;;;4.40;2.10;;;;;;;13.54;62.92;102471.25;5055828;28;20086;-75
2022/07/06 00:42:44;;;;;;;3.95;2.05;;;;;;;13.48;63.08;102467.84;5057669;28;20056;-75
2022/07/06 00:45:11;;;;;;;2.78;2.08;;;;;;;13.45;63.18;102465.28;5052228;28;20036;-75
2022/07/06 00:47:36;;;;;;;4.47;2.05;;;;;;;13.44;63.51;102468.78;5056760;28;20031;-75
2022/07/06 00:50:22;;;;;;;4.78;2.25;;;;;;;13.40;63.42;102461.84;5060095;28;20024;-75
2022/07/06 00:52:47;;;;;;;4.68;2.10;;;;;;;13.40;63.58;102459.22;5060655;28;20333;-75
2022/07/06 00:55:14;;;;;;;3.55;2.20;;;;;;;13.37;63.94;102464.44;5065608;28;21647;-75
2022/07/06 00:57:40;;;;;;;3.40;2.10;;;;;;;13.34;63.97;102465.34;5059487;28;20529;-76
2022/07/06 01:00:09;;;;;;;2.58;1.90;;;;;;;13.31;63.90;102454.09;5054167;28;20086;-75
2022/07/06 01:02:35;;;;;;;4.43;2.17;;;;;;;13.30;64.23;102458.44;5056959;28;20036;-75
2022/07/06 01:05:03;;;;;;;4.70;2.13;;;;;;;13.29;64.04;102458.47;5060488;28;20479;-74
2022/07/06 01:07:29;;;;;;;4.57;2.35;;;;;;;13.27;64.28;102458.44;5058880;28;20054;-75
2022/07/06 01:09:55;;;;;;;5.30;2.05;;;;;;;13.26;64.31;102453.25;5056535;28;20068;-75
2022/07/06 01:12:21;;;;;;;6.00;2.30;;;;;;;13.26;64.27;102458.47;5056088;28;20426;-75
2022/07/06 01:14:48;;;;;;;8.18;2.45;;;;;;;13.24;64.56;102453.25;5067003;28;20024;-75
2022/07/06 01:17:15;;;;;;;7.43;2.10;;;;;;;13.22;64.41;102457.66;5059982;28;20036;-75
2022/07/06 01:19:40;;;;;;;6.75;2.15;;;;;;;13.22;64.59;102460.28;5054183;28;20120;-75
2022/07/06 01:22:06;;;;;;;7.10;2.65;;;;;;;13.19;64.60;102457.69;5059275;28;20111;-74
2022/07/06 01:24:31;;;;;;;5.53;2.17;;;;;;;13.18;64.62;102461.19;5060255;28;20502;-75
2022/07/06 01:26:57;;;;;;;3.85;2.22;;;;;;;13.16;64.67;102453.34;5054755;28;20111;-75
2022/07/06 01:29:22;;;;;;;3.92;2.00;;;;;;;13.17;64.58;102459.44;5054952;28;20028;-75
2022/07/06 01:31:49;;;;;;;3.25;2.22;;;;;;;13.14;64.89;102455.13;5056338;28;20033;-75
2022/07/06 01:34:16;;;;;;;3.97;2.25;;;;;;;13.14;64.78;102455.13;5061496;28;20029;-75
2022/07/06 01:36:41;;;;;;;5.88;2.20;;;;;;;13.12;65.23;102454.28;5058821;28;20033;-75
2022/07/06 01:39:08;;;;;;;5.03;2.30;;;;;;;13.09;64.85;102456.91;5059677;28;20028;-75
2022/07/06 01:41:34;;;;;;;5.03;1.98;;;;;;;13.06;65.09;102457.78;5055963;28;20590;-75
2022/07/06 01:43:59;;;;;;;3.67;2.20;;;;;;;13.07;65.11;102456.06;5063850;28;20044;-74
2022/07/06 01:46:25;;;;;;;2.90;2.05;;;;;;;13.04;65.30;102456.09;5060237;28;20114;-75
2022/07/06 01:48:50;;;;;;;3.78;2.20;;;;;;;13.03;65.04;102455.25;5054201;28;20052;-75
2022/07/06 01:51:16;;;;;;;4.20;1.90;;;;;;;13.03;65.27;102451.75;5059479;28;20047;-75
2022/07/06 01:53:41;;;;;;;4.85;2.00;;;;;;;13.02;65.03;102455.22;5052194;28;20029;-75
2022/07/06 01:56:07;;;;;;;6.40;2.17;;;;;;;13.00;65.07;102452.66;5057102;28;20121;-75
2022/07/06 01:58:32;;;;;;;3.33;1.90;;;;;;;12.97;65.07;102462.28;5060130;28;20025;-75
2022/07/06 02:00:58;;;;;;;4.72;2.17;;;;;;;12.93;65.52;102460.56;5053429;28;20032;-75
2022/07/06 02:03:23;;;;;;;6.75;2.50;;;;;;;12.89;65.28;102455.38;5062944;28;20025;-75
2022/07/06 02:05:48;;;;;;;4.93;2.22;;;;;;;12.86;65.50;102450.16;5058037;28;20099;-75
2022/07/06 02:08:14;;;;;;;5.57;2.22;;;;;;;12.82;65.79;102453.69;5054493;28;20028;-75
2022/07/06 02:10:40;;;;;;;3.42;2.17;;;;;;;12.81;65.82;102456.31;5054854;28;20061;-75
2022/07/06 02:13:05;;;;;;;4.72;2.20;;;;;;;12.79;65.67;102458.94;5057102;28;20024;-75
2022/07/06 02:15:30;;;;;;;3.70;2.22;;;;;;;12.77;65.90;102463.31;5058410;28;20029;-75
2022/07/06 02:17:56;;;;;;;3.65;2.25;;;;;;;12.74;66.00;102456.34;5061641;28;20032;-75
2022/07/06 02:20:21;;;;;;;3.35;2.22;;;;;;;12.73;65.98;102461.59;5057342;28;21705;-75
2022/07/06 02:22:46;;;;;;;2.85;2.10;;;;;;;12.71;66.02;102456.41;5064436;28;20064;-75
2022/07/06 02:25:11;;;;;;;4.93;2.20;;;;;;;12.70;66.20;102464.25;5061226;28;20036;-75
2022/07/06 02:27:37;;;;;;;5.68;2.60;;;;;;;12.67;66.21;102470.38;5059045;28;20052;-76
2022/07/06 02:30:03;;;;;;;5.25;2.38;;;;;;;12.67;66.36;102466.88;5060408;28;20433;-75
2022/07/06 02:32:28;;;;;;;4.15;2.50;;;;;;;12.63;66.52;102462.56;5062214;28;20098;-75
2022/07/06 02:34:53;;;;;;;2.90;2.22;;;;;;;12.58;66.45;102450.41;5055472;28;20123;-74
2022/07/06 02:37:19;;;;;;;5.95;2.50;;;;;;;12.54;66.78;102456.53;5056814;28;20059;-75
2022/07/06 02:39:44;;;;;;;3.53;2.50;;;;;;;12.50;66.87;102451.34;5055172;28;20488;-74
2022/07/06 02:42:09;;;;;;;3.33;2.38;;;;;;;12.47;67.10;102449.63;5063752;28;20021;-75
2022/07/06 02:44:35;;;;;;;5.28;2.20;;;;;;;12.41;66.93;102458.38;5064703;28;20056;-75
2022/07/06 02:47:00;;;;;;;5.07;2.47;;;;;;;12.37;67.19;102454.06;5059978;28;20032;-75
2022/07/06 02:49:25;;;;;;;3.58;2.30;;;;;;;12.33;67.60;102452.34;5061353;28;20013;-75
2022/07/06 02:51:50;;;;;;;6.60;2.58;;;;;;;12.29;67.22;102459.34;5057655;28;20040;-75
2022/07/06 02:54:16;;;;;;;5.10;2.60;;;;;;;12.27;67.60;102453.28;5057596;28;20800;-74
2022/07/06 02:56:41;;;;;;;6.25;2.53;;;;;;;12.26;67.63;102461.97;5066895;28;20021;-75
2022/07/06 02:59:06;;;;;;;7.13;2.53;;;;;;;12.25;67.61;102468.06;5057822;28;20425;-75
2022/07/06 03:01:31;;;;;;;4.38;2.30;;;;;;;12.25;68.01;102452.41;5066175;28;20204;-75
2022/07/06 03:03:57;;;;;;;5.50;2.50;;;;;;;12.25;67.77;102467.19;5061444;28;20032;-74
2022/07/06 03:06:22;;;;;;;5.93;2.47;;;;;;;12.24;67.78;102455.91;5058939;28;20028;-74
2022/07/06 03:08:47;;;;;;;4.60;2.40;;;;;;;12.25;67.78;102468.06;5060197;28;20052;-75
2022/07/06 03:11:13;;;;;;;6.93;2.50;;;;;;;12.25;68.24;102472.41;5056446;28;20036;-74
2022/07/06 03:13:38;;;;;;;11.13;2.67;;;;;;;12.23;67.70;102468.94;5060194;28;20020;-75
2022/07/06 03:16:03;;;;;;;7.88;2.70;;;;;;;12.24;67.84;102468.94;5059592;28;20372;-75
2022/07/06 03:18:29;;;;;;;6.30;2.90;;;;;;;12.22;68.05;102461.97;5063756;28;20032;-75
2022/07/06 03:20:54;;;;;;;4.40;2.85;;;;;;;12.21;67.81;102470.72;5061152;28;20048;-74
2022/07/06 03:23:19;;;;;;;4.18;2.70;;;;;;;12.18;68.43;102466.34;5065712;28;20033;-75
2022/07/06 03:25:45;;;;;;;5.45;3.15;;;;;;;12.16;68.42;102465.50;5058423;28;20033;-75
2022/07/06 03:28:10;;;;;;;5.32;2.97;;;;;;;12.16;68.32;102468.09;5058349;28;20602;-75
2022/07/06 03:30:36;;;;;;;5.20;3.00;;;;;;;12.17;68.22;102472.44;5059925;28;20111;-74
2022/07/06 03:33:01;;;;;;;5.53;3.38;;;;;;;12.17;68.49;102469.00;5055037;28;20032;-75
2022/07/06 03:35:26;;;;;;;5.05;3.00;;;;;;;12.17;68.18;102469.00;5057861;28;20024;-74
2022/07/06 03:37:51;;;;;;;10.50;3.55;;;;;;;12.17;68.19;102471.59;5062080;28;20463;-74
2022/07/06 03:40:17;;;;;;;7.32;3.47;;;;;;;12.16;68.45;102469.88;5057810;28;20036;-75
2022/07/06 03:42:42;;;;;;;5.45;3.30;;;;;;;12.13;68.44;102471.63;5060756;28;20488;-74
2022/07/06 03:45:09;;;;;;;4.60;2.97;;;;;;;12.11;68.63;102467.28;5067779;28;20455;-75
2022/07/06 03:47:34;;;;;;;6.50;3.10;;;;;;;12.09;68.40;102471.66;5057530;28;20104;-74
2022/07/06 03:49:59;;;;;;;4.75;3.08;;;;;;;12.07;68.45;102474.25;5061848;28;20112;-75
2022/07/06 03:52:24;;;;;;;5.38;3.30;;;;;;;12.04;68.86;102469.03;5057321;28;20020;-75
2022/07/06 03:54:50;;;;;;;6.93;3.10;;;;;;;12.02;69.08;102469.94;5058732;28;20111;-75
2022/07/06 03:57:15;;;;;;;5.05;3.08;;;;;;;12.01;68.95;102469.09;5064486;28;20020;-75
2022/07/06 03:59:40;;;;;;;5.03;3.30;;;;;;;12.02;68.91;102473.44;5064684;28;20478;-75
2022/07/06 04:02:06;;;;;;;6.43;3.15;;;;;;;12.03;68.91;102471.66;5061392;28;20033;-75
2022/07/06 04:04:33;;;;;;;9.30;3.20;;;;;;;12.03;68.96;102471.66;5054204;28;20464;-74
2022/07/06 04:06:58;;;;;;;6.53;3.17;;;;;;;12.06;68.92;102471.66;5060572;28;20418;-75
2022/07/06 04:09:23;;;;;;;6.90;3.40;;;;;;;12.06;69.20;102472.50;5059724;28;20143;-75
2022/07/06 04:11:49;;;;;;;5.50;2.88;;;;;;;12.07;68.92;102474.25;5053732;28;20169;-75
2022/07/06 04:14:14;;;;;;;5.13;2.97;;;;;;;12.08;68.81;102475.13;5050924;28;20503;-75
2022/07/06 04:16:39;;;;;;;4.00;2.92;;;;;;;12.07;69.31;102476.84;5059486;28;20025;-74
2022/07/06 04:19:04;;;;;;;5.47;3.13;;;;;;;12.08;68.92;102475.13;5054606;28;20053;-75
2022/07/06 04:21:30;;;;;;;6.15;3.20;;;;;;;12.07;69.06;102471.63;5065186;28;20412;-74
2022/07/06 04:23:55;;;;;;;6.32;3.58;;;;;;;12.09;69.16;102471.66;5063952;28;20129;-74
2022/07/06 04:26:20;;;;;;;4.50;3.03;;;;;;;12.10;69.11;102468.16;5060114;28;20032;-75
2022/07/06 04:28:46;;;;;;;5.32;3.30;;;;;;;12.10;69.20;102463.78;5060499;28;20033;-75
2022/07/06 04:31:14;;;;;;;4.45;3.30;;;;;;;12.12;69.18;102455.97;5053325;28;20036;-74
2022/07/06 04:33:40;;;;;;;4.55;3.13;;;;;;;12.15;69.16;102466.38;5062990;28;20036;-75
2022/07/06 04:36:05;;;;;;;4.88;2.90;;;;;;;12.17;69.15;102464.63;5057590;28;20042;-75
2022/07/06 04:38:30;;;;;;;5.25;3.35;;;;;;;12.20;69.26;102459.38;5053387;28;20477;-75
2022/07/06 04:40:56;;;;;;;4.70;3.00;;;;;;;12.25;69.17;102459.34;5051190;28;20029;-75
2022/07/06 04:43:21;;;;;;;7.75;3.25;;;;;;;12.26;69.18;102467.19;5057260;28;20119;-75
2022/07/06 04:45:47;;;;;;;6.07;3.10;;;;;;;12.29;68.92;102464.56;5055672;28;20106;-75
2022/07/06 04:48:12;;;;;;;5.40;3.10;;;;;;;12.28;69.07;102456.72;5057187;28;20044;-74
2022/07/06 04:50:38;;;;;;;6.07;3.30;;;;;;;12.29;69.59;102459.34;5059670;28;20059;-74
2022/07/06 04:53:03;;;;;;;6.85;3.38;;;;;;;12.35;69.10;102462.75;5060765;28;20032;-74
2022/07/06 04:55:29;;;;;;;5.40;3.08;;;;;;;12.38;69.17;102463.59;5055815;28;20028;-75
2022/07/06 04:57:54;;;;;;;6.90;3.15;;;;;;;12.42;68.79;102459.25;5058745;28;20486;-74
2022/07/06 05:00:20;;;;;;;5.78;3.17;;;;;;;12.45;69.21;102464.44;5054303;28;20182;-74
2022/07/06 05:02:46;;;;;;;5.53;3.20;;;;;;;12.49;69.00;102466.13;5057680;28;20547;-75
2022/07/06 05:05:11;;;;;;;5.05;3.20;;;;;;;12.54;69.17;102460.91;5053366;28;20029;-75
2022/07/06 05:07:39;;;;;;;8.00;3.10;;;;;;;12.58;68.82;102463.47;5059356;28;20046;-75
2022/07/06 05:10:06;;;;;;;6.45;3.35;;;;;;;12.64;68.82;102462.56;5055294;28;20050;-74
2022/07/06 05:12:32;;;;;;;5.80;3.03;;;;;;;12.69;68.53;102465.13;5056253;28;20391;-75
2022/07/06 05:14:57;;;;;;;8.35;3.03;;;;;;;12.71;68.68;102465.97;5055147;28;20075;-75
2022/07/06 05:17:22;;;;;;;8.20;3.30;;;;;;;12.75;68.59;102472.91;5060870;28;20031;-75
2022/07/06 05:19:48;;;;;;;6.55;3.30;;;;;;;12.80;68.89;102480.69;5057361;28;20049;-74
2022/07/06 05:22:13;;;;;;;4.57;3.00;;;;;;;12.83;68.42;102480.69;5057163;28;20539;-74
2022/07/06 05:24:39;;;;;;;9.00;3.30;;;;;;;12.88;68.84;102478.91;5056156;28;20028;-74
2022/07/06 05:27:04;;;;;;;5.68;3.28;;;;;;;12.95;68.47;102484.94;5058622;28;20118;-75
2022/07/06 05:29:29;;;;;;;5.40;3.05;;;;;;;12.99;68.78;102484.00;5054957;28;20027;-75
2022/07/06 05:31:54;;;;;;;4.65;2.80;;;;;;;13.01;68.74;102484.84;5057445;28;20506;-75
2022/07/06 05:34:20;;;;;;;4.47;3.05;;;;;;;13.01;69.16;102484.84;5067368;28;20044;-74
2022/07/06 05:36:45;;;;;;;5.03;2.90;;;;;;;13.01;68.65;102487.47;5055764;28;20625;-75
2022/07/06 05:39:10;;;;;;;3.80;2.72;;;;;;;13.01;68.84;102484.84;5057080;28;20089;-76
2022/07/06 05:41:35;;;;;;;5.97;3.10;;;;;;;13.04;68.96;102487.44;5054617;28;20033;-74
2022/07/06 05:44:01;;;;;;;6.20;3.00;;;;;;;13.03;69.40;102489.19;5058899;28;20480;-75
2022/07/06 05:46:28;;;;;;;6.15;3.03;;;;;;;13.03;69.32;102493.53;5055041;28;20032;-75
2022/07/06 05:51:37;;;;;;;6.57;3.60;;;;;;;13.08;69.21;102490.88;5057005;28;20055;-74
2022/07/06 05:54:02;;;;;;;6.13;2.80;;;;;;;13.08;69.38;102496.09;5055454;28;21321;-75
2022/07/06 05:56:27;;;;;;;4.20;2.88;;;;;;;13.09;69.00;102493.50;5059751;28;20035;-74
2022/07/06 05:58:53;;;;;;;6.03;3.17;;;;;;;13.13;69.73;102495.22;5056726;28;20025;-75
2022/07/06 06:01:18;;;;;;;3.08;2.70;;;;;;;13.17;69.48;102501.25;5057231;28;20108;-75
2022/07/06 06:03:43;;;;;;;8.13;2.70;;;;;;;13.24;69.75;102502.91;5057316;28;21866;-75
2022/07/06 06:06:08;;;;;;;3.67;2.65;;;;;;;13.32;69.21;102495.03;5060098;28;20174;-75
2022/07/06 06:08:34;;;;;;;9.30;2.97;;;;;;;13.39;70.03;102501.91;5054992;28;20107;-75
2022/07/06 06:10:59;;;;;;;5.18;2.85;;;;;;;13.46;69.37;102508.84;5066866;28;20024;-75
2022/07/06 06:13:24;;;;;;;4.60;2.92;;;;;;;13.53;69.22;102503.50;5056171;28;20069;-75
2022/07/06 06:15:50;;;;;;;5.22;2.53;;;;;;;13.59;68.58;102498.22;5057674;28;20033;-74
2022/07/06 06:18:17;;;;;;;6.32;2.70;;;;;;;13.65;68.72;102506.00;5053119;28;20073;-75
2022/07/06 06:20:42;;;;;;;4.65;2.70;;;;;;;13.73;68.20;102505.91;5058300;28;20456;-75
2022/07/06 06:23:07;;;;;;;5.32;2.80;;;;;;;13.80;68.08;102504.94;5056663;28;20035;-74
2022/07/06 06:25:36;;;;;;;6.95;2.90;;;;;;;13.88;68.42;102504.84;5062388;28;20043;-75
2022/07/06 06:28:04;;;;;;;5.18;2.63;;;;;;;13.95;68.44;102501.28;5062631;28;20039;-75
2022/07/06 06:30:29;;;;;;;6.03;2.63;;;;;;;14.03;68.95;102494.16;5064409;28;20097;-75
2022/07/06 06:33:12;;;;;;;5.13;2.47;;;;;;;14.14;67.73;102495.78;5061637;28;20028;-75
2022/07/06 06:35:42;;;;;;;4.18;2.30;;;;;;;14.26;69.09;102490.38;5059740;28;20037;-75
2022/07/06 06:38:08;;;;;;;3.80;2.20;;;;;;;14.40;69.08;102488.41;5061928;28;20025;-75
2022/07/06 06:40:33;;;;;;;4.07;1.90;;;;;;;14.51;67.29;102490.00;5068899;28;20024;-75
2022/07/06 06:42:58;;;;;;;4.30;2.33;;;;;;;14.66;68.77;102494.13;5064197;28;20036;-75
2022/07/06 06:45:24;;;;;;;3.47;1.60;;;;;;;14.77;66.02;102493.97;5061360;28;20455;-75
2022/07/06 06:47:49;;;;;;;2.33;1.20;;;;;;;14.84;63.55;102493.84;5063178;28;20035;-75
2022/07/06 06:50:15;;;;;;;1.67;1.10;;;;;;;14.90;64.27;102498.09;5059942;28;20079;-75
2022/07/06 06:52:40;;;;;;;2.38;0.90;;;;;;;14.95;62.97;102496.28;5054082;28;20035;-75
2022/07/06 06:55:06;;;;;;;4.05;0.80;;;;;;;14.95;62.29;102496.28;5055444;28;20110;-74
2022/07/06 06:57:31;;;;;;;3.65;0.90;;;;;;;14.97;62.96;102497.13;5058230;28;20070;-75
2022/07/06 06:59:57;;;;;;;2.17;0.80;;;;;;;15.01;63.18;102497.94;5065845;28;20051;-74
2022/07/06 07:02:22;;;;;;;2.70;0.95;;;;;;;15.07;62.17;102505.69;5061520;28;20048;-75
2022/07/06 07:04:48;;;;;;;2.35;0.80;;;;;;;15.12;63.64;102508.22;5067712;28;20070;-75
2022/07/06 07:07:13;;;;;;;2.03;0.80;;;;;;;15.14;63.42;102511.69;5065424;28;20032;-75
2022/07/06 07:09:38;;;;;;;2.97;0.80;;;;;;;15.19;62.96;102509.84;5070725;28;20464;-74
2022/07/06 07:12:04;;;;;;;1.98;0.70;;;;;;;15.23;62.24;102503.63;5070402;28;20024;-75
2022/07/06 07:14:30;;;;;;;2.55;0.90;;;;;;;15.30;64.53;102502.63;5071059;28;20521;-75
2022/07/06 07:16:55;;;;;;;3.08;1.02;;;;;;;15.37;61.72;102503.38;5084126;28;20020;-75
2022/07/06 07:19:20;;;;;;;2.67;0.80;;;;;;;15.43;61.48;102510.25;5092206;28;20040;-75
2022/07/06 07:21:46;;;;;;;1.60;0.80;;;;;;;15.47;60.72;102504.91;5081659;28;20028;-75
2022/07/06 07:24:11;;;;;;;9.07;0.98;;;;;;;15.47;61.80;102504.91;5081237;28;20490;-76
2022/07/06 07:26:37;;;;;;;1.50;0.73;;;;;;;15.50;61.52;102505.75;5079582;28;20024;-75
2022/07/06 07:29:03;;;;;;;1.90;0.50;;;;;;;15.48;60.59;102503.19;5082147;28;20028;-76
2022/07/06 07:31:28;;;;;;;2.08;0.60;;;;;;;15.53;61.18;102508.31;5085524;28;20502;-74
2022/07/06 07:33:56;;;;;;;2.47;0.85;;;;;;;15.56;60.51;102516.13;5069646;28;20028;-74
2022/07/06 07:36:22;;;;;;;1.83;0.80;;;;;;;15.56;60.55;102508.28;5069052;28;20035;-75
2022/07/06 07:38:47;;;;;;;1.75;0.70;;;;;;;15.56;60.58;102508.28;5065192;28;20025;-75
2022/07/06 07:41:13;;;;;;;1.23;0.60;;;;;;;15.57;60.55;102510.84;5069084;28;20031;-75
2022/07/06 07:43:39;;;;;;;2.05;0.70;;;;;;;15.62;59.48;102516.88;5064578;28;20369;-75
2022/07/06 07:46:04;;;;;;;2.88;0.60;;;;;;;15.60;59.18;102523.91;5069268;28;20495;-74
2022/07/06 07:48:29;;;;;;;1.05;0.50;;;;;;;15.60;58.94;102516.03;5064610;28;20084;-74
2022/07/06 07:50:55;;;;;;;3.03;0.60;;;;;;;15.61;59.54;102512.53;5064368;28;22698;-74
2022/07/06 07:53:20;;;;;;;1.48;0.70;;;;;;;15.65;59.11;102512.47;5057344;28;20032;-74
2022/07/06 07:55:45;;;;;;;1.45;0.60;;;;;;;15.70;60.37;102510.63;5065001;28;20028;-75
2022/07/06 07:58:10;;;;;;;1.00;0.60;;;;;;;15.76;59.82;102510.47;5063889;28;20035;-74
2022/07/06 08:00:36;;;;;;;2.25;0.73;;;;;;;15.84;60.41;102507.69;5063629;28;20029;-75
2022/07/06 08:03:01;;;;;;;1.55;0.60;;;;;;;15.90;58.63;102515.47;5063612;28;20445;-74
2022/07/06 08:05:27;;;;;;;1.35;0.60;;;;;;;15.97;58.82;102508.34;5063296;28;20111;-75
2022/07/06 08:07:52;;;;;;;1.50;0.70;;;;;;;16.02;59.03;102502.06;5065608;28;20035;-75
2022/07/06 08:10:17;;;;;;;1.80;0.77;;;;;;;16.07;58.99;102510.72;5068103;28;20013;-75
2022/07/06 08:12:43;;;;;;;3.47;1.00;;;;;;;16.11;58.08;102500.16;5071454;28;20029;-75
2022/07/06 08:15:08;;;;;;;3.03;0.85;;;;;;;16.13;57.76;102493.97;5068789;28;20032;-75
2022/07/06 08:17:33;;;;;;;2.97;0.93;;;;;;;16.15;58.18;102497.41;5071370;28;20024;-75
2022/07/06 08:19:59;;;;;;;1.08;0.90;;;;;;;16.15;58.47;102502.69;5071767;28;20058;-74
2022/07/06 08:22:24;;;;;;;3.25;0.80;;;;;;;16.17;57.52;102500.88;5068473;28;20017;-75
2022/07/06 08:24:50;;;;;;;2.03;0.65;;;;;;;16.20;55.85;102495.56;5070457;28;20030;-75
2022/07/06 08:27:15;;;;;;;2.05;0.68;;;;;;;16.24;57.67;102494.56;5071407;28;20024;-75
2022/07/06 08:29:40;;;;;;;3.03;0.70;;;;;;;16.35;56.90;102504.84;5069312;28;20031;-74
2022/07/06 08:32:07;;;;;;;2.65;0.90;;;;;;;16.45;56.74;102500.22;5073212;28;20059;-75
2022/07/06 08:34:32;;;;;;;2.70;0.80;;;;;;;16.54;57.17;102505.28;5069649;28;20020;-75
2022/07/06 08:36:58;;;;;;;1.23;0.70;;;;;;;16.64;56.63;102489.28;5071956;28;20052;-75
2022/07/06 08:39:23;;;;;;;1.67;0.70;;;;;;;16.70;54.37;102483.88;5067261;28;20450;-75
2022/07/06 08:41:50;;;;;;;0.75;0.55;;;;;;;16.75;53.08;102491.63;5070526;28;20504;-75
2022/07/06 08:44:17;;;;;;;0.98;0.40;;;;;;;16.80;54.16;102493.25;5070055;28;20034;-75
2022/07/06 08:46:43;;;;;;;1.08;0.50;;;;;;;16.90;53.06;102485.13;5070519;28;20044;-75
2022/07/06 08:49:11;;;;;;;3.10;0.60;;;;;;;16.96;52.88;102487.59;5069261;28;20052;-75
2022/07/06 08:51:38;;;;;;;1.83;0.63;;;;;;;17.06;54.01;102483.84;5086943;28;20061;-75
2022/07/06 08:54:03;;;;;;;3.33;0.55;;;;;;;17.16;52.15;102488.84;5085715;28;20037;-75
2022/07/06 08:56:29;;;;;;;1.73;0.50;;;;;;;17.16;50.87;102484.47;5074128;28;20027;-75
2022/07/06 08:58:55;;;;;;;2.08;0.50;;;;;;;17.14;49.99;102481.00;5073366;28;20032;-75
2022/07/06 09:01:21;;;;;;;2.00;0.50;;;;;;;17.19;52.13;102480.88;5072421;28;20108;-74
2022/07/06 09:03:49;;;;;;;1.20;0.50;;;;;;;17.28;51.80;102475.34;5070062;28;20104;-75
2022/07/06 09:06:16;;;;;;;1.42;0.50;;;;;;;17.39;52.28;102473.31;5072778;28;20035;-75
2022/07/06 09:08:43;;;;;;;0.77;0.40;;;;;;;17.53;52.95;102474.66;5091291;28;20065;-74
2022/07/06 09:11:08;;;;;;;2.67;0.50;;;;;;;17.57;51.44;102479.78;5070013;28;20028;-75
2022/07/06 09:13:33;;;;;;;3.78;0.50;;;;;;;17.56;53.25;102485.13;5068242;28;20024;-75
2022/07/06 09:16:13;;;;;;;2.60;0.40;;;;;;;17.56;50.87;102477.22;5068695;28;20116;-75
2022/07/06 09:18:39;;;;;;;1.35;0.40;;;;;;;17.51;46.94;102479.09;5067961;28;20024;-75
2022/07/06 09:21:07;;;;;;;0.65;0.30;;;;;;;17.54;48.64;102477.25;5071411;28;20043;-75
2022/07/06 09:23:33;;;;;;;0.30;0.30;;;;;;;17.62;50.90;102479.66;5062998;28;20115;-75
2022/07/06 09:26:02;;;;;;;1.10;0.50;;;;;;;17.68;47.79;102482.13;5073569;28;20116;-74
2022/07/06 09:28:44;;;;;;;1.17;0.30;;;;;;;17.73;48.98;102480.22;5077050;28;20475;-75
2022/07/06 09:31:10;;;;;;;1.45;0.45;;;;;;;17.81;48.14;102484.38;5061983;28;20033;-75
2022/07/06 09:33:36;;;;;;;2.83;0.40;;;;;;;17.89;48.79;102472.69;5077956;28;20028;-74
2022/07/06 09:36:02;;;;;;;1.13;0.40;;;;;;;17.99;47.31;102477.72;5063152;28;20063;-75
2022/07/06 09:38:28;;;;;;;0.85;0.40;;;;;;;18.10;47.00;102472.13;5069643;28;20495;-75
2022/07/06 09:40:54;;;;;;;1.63;0.50;;;;;;;18.20;48.35;102476.19;5070956;28;20043;-75
2022/07/06 09:43:21;;;;;;;2.10;0.60;;;;;;;18.31;46.06;102479.34;5069523;28;20024;-75
2022/07/06 09:45:53;;;;;;;1.70;0.47;;;;;;;18.40;47.56;102480.81;5071866;28;20050;-75
2022/07/06 09:48:23;;;;;;;1.40;0.43;;;;;;;18.43;46.37;102485.13;5065401;28;20037;-75
2022/07/06 09:50:57;;;;;;;0.93;0.30;;;;;;;18.40;46.31;102482.59;5071841;28;20032;-75
2022/07/06 09:53:26;;;;;;;0.57;0.30;;;;;;;18.39;44.76;102491.41;5070848;28;20044;-75
2022/07/06 09:55:53;;;;;;;1.05;0.30;;;;;;;18.40;44.08;102487.88;5065241;28;20024;-75
2022/07/06 09:58:20;;;;;;;1.70;0.32;;;;;;;18.41;46.49;102495.72;5070347;28;20420;-75
2022/07/06 10:00:47;;;;;;;1.10;0.40;;;;;;;18.42;43.81;102491.31;5072543;28;20038;-75
2022/07/06 10:03:13;;;;;;;1.42;0.30;;;;;;;18.42;43.75;102493.94;5066748;28;20040;-75
2022/07/06 10:05:40;;;;;;;0.80;0.30;;;;;;;18.43;43.79;102493.88;5069484;28;20032;-75
2022/07/06 10:08:09;;;;;;;1.25;0.28;;;;;;;18.45;43.44;102489.44;5069826;28;20024;-75
2022/07/06 10:10:35;;;;;;;1.83;0.40;;;;;;;18.55;45.40;102497.91;5068526;28;20510;-75
2022/07/06 10:13:01;;;;;;;2.30;0.30;;;;;;;18.60;44.92;102495.97;5066863;28;20052;-75
2022/07/06 10:15:31;;;;;;;1.13;0.30;;;;;;;18.65;45.20;102498.47;5071529;28;20056;-75
2022/07/06 10:17:57;;;;;;;0.95;0.38;;;;;;;18.66;45.93;102495.75;5062890;28;20028;-75
2022/07/06 10:20:22;;;;;;;0.93;0.30;;;;;;;18.68;43.37;102495.72;5078662;28;20090;-75
2022/07/06 10:22:49;;;;;;;0.65;0.30;;;;;;;18.71;46.65;102497.38;5071731;28;20031;-75
2022/07/06 10:25:19;;;;;;;1.35;0.40;;;;;;;18.77;45.76;102499.81;5055743;28;20083;-75
2022/07/06 10:27:46;;;;;;;1.17;0.30;;;;;;;18.84;46.96;102493.41;5055095;28;20021;-75
2022/07/06 10:30:11;;;;;;;1.83;0.32;;;;;;;18.94;44.36;102493.97;5055827;28;20032;-75
2022/07/06 10:32:40;;;;;;;1.48;0.43;;;;;;;18.96;44.35;102493.00;5061511;28;20059;-75
2022/07/06 10:35:06;;;;;;;0.98;0.40;;;;;;;19.00;45.28;102492.91;5057943;28;20484;-75
2022/07/06 10:37:33;;;;;;;0.30;0.30;;;;;;;19.04;43.74;102486.63;5060301;28;20383;-75
2022/07/06 10:42:53;;;;;;;0.75;0.28;;;;;;;19.03;45.00;102492.81;5061273;28;20117;-75
2022/07/06 10:45:41;;;;;;;0.65;0.30;;;;;;;19.05;43.97;102497.09;5062276;28;20037;-75
2022/07/06 10:48:17;;;;;;;0.50;0.30;;;;;;;19.07;43.92;102490.00;5061688;28;20033;-75
2022/07/06 10:50:45;;;;;;;1.55;0.30;;;;;;;19.10;44.84;102495.19;5057923;28;20033;-75
2022/07/06 10:53:12;;;;;;;1.00;0.20;;;;;;;19.11;42.79;102493.41;5057031;28;20032;-75
2022/07/06 10:55:44;;;;;;;0.73;0.30;;;;;;;19.15;45.36;102492.38;5061678;28;20024;-75
2022/07/06 10:58:10;;;;;;;1.48;0.38;;;;;;;19.16;44.44;102486.16;5056326;28;20036;-75
2022/07/06 11:00:53;;;;;;;1.17;0.30;;;;;;;19.17;44.17;102490.53;5058970;28;20491;-76
2022/07/06 11:03:37;;;;;;;1.80;0.50;;;;;;;19.14;44.06;102489.78;5059741;28;20074;-74
2022/07/06 11:06:09;;;;;;;0.60;0.22;;;;;;;19.04;43.06;102486.63;5065445;28;20114;-75
2022/07/06 11:08:54;;;;;;;0.40;0.30;;;;;;;19.01;44.13;102482.31;5058874;28;20033;-75
2022/07/06 11:11:20;;;;;;;1.10;0.40;;;;;;;19.03;44.82;102482.25;5058365;28;20429;-75
2022/07/06 11:13:50;;;;;;;1.42;0.40;;;;;;;19.05;46.42;102481.28;5056241;28;20039;-75
2022/07/06 11:16:17;;;;;;;0.47;0.30;;;;;;;19.04;44.81;102482.22;5057726;28;20513;-75
2022/07/06 11:18:58;;;;;;;1.35;0.30;;;;;;;19.05;43.97;102480.44;5059852;28;20035;-75
2022/07/06 11:21:31;;;;;;;1.98;0.45;;;;;;;19.06;44.34;102487.44;5059016;28;20492;-75
2022/07/06 11:23:58;;;;;;;1.85;0.57;;;;;;;19.03;44.33;102487.53;5058396;28;20102;-75
2022/07/06 11:26:23;;;;;;;2.60;0.32;;;;;;;18.98;44.08;102485.06;5061755;28;20020;-75